sensor_id;sensor_type;location;lat;lon;timestamp;P1;durP1;ratioP1;P2;durP2;ratioP2
1090;SDS011;534;48.704;9.122;2023-05-14T04:02:07;3.20;;;2.90;;
1090;SDS011;534;48.704;9.122;2023-05-14T04:04:33;3.73;;;3.43;;
1090;SDS011;534;48.704;9.122;2023-05-14T04:07:00;4.03;;;3.60;;
1090;SDS011;534;48.704;9.122;2023-05-14T04:09:26;3.60;;;3.30;;
1090;SDS011;534;48.704;9.122;2023-05-14T04:11:53;3.30;;;3.00;;
1090;SDS011;534;48.704;9.122;2023-05-14T04:14:20;3.47;;;3.17;;
1090;SDS011;534;48.704;9.122;2023-05-14T04:16:46;4.00;;;3.70;;
1090;SDS011;534;48.704;9.122;2023-05-14T04:19:14;3.73;;;3.43;;
1090;SDS011;534;48.704;9.122;2023-05-14T04:21:41;3.53;;;3.23;;
1090;SDS011;534;48.704;9.122;2023-05-14T04:24:08;3.33;;;3.03;;
1090;SDS011;534;48.704;9.122;2023-05-14T04:26:34;2.90;;;2.70;;
1090;SDS011;534;48.704;9.122;2023-05-14T04:29:01;4.00;;;3.70;;
1090;SDS011;534;48.704;9.122;2023-05-14T04:31:27;3.53;;;3.17;;
1090;SDS011;534;48.704;9.122;2023-05-14T04:33:55;5.53;;;3.40;;
1090;SDS011;534;48.704;9.122;2023-05-14T04:36:23;3.30;;;3.00;;
1090;SDS011;534;48.704;9.122;2023-05-14T04:38:50;3.77;;;3.17;;
1090;SDS011;534;48.704;9.122;2023-05-14T04:41:16;3.47;;;3.17;;
1090;SDS011;534;48.704;9.122;2023-05-14T04:43:43;3.40;;;3.10;;
1090;SDS011;534;48.704;9.122;2023-05-14T04:46:10;4.20;;;3.90;;
1090;SDS011;534;48.704;9.122;2023-05-14T04:48:37;4.07;;;3.70;;
1090;SDS011;534;48.704;9.122;2023-05-14T04:51:04;3.27;;;2.97;;
1090;SDS011;534;48.704;9.122;2023-05-14T04:53:32;3.20;;;2.90;;
1090;SDS011;534;48.704;9.122;2023-05-14T04:55:59;3.50;;;3.20;;
1090;SDS011;534;48.704;9.122;2023-05-14T04:58:25;3.00;;;2.70;;
1090;SDS011;534;48.704;9.122;2023-05-14T05:00:53;3.47;;;3.17;;
1090;SDS011;534;48.704;9.122;2023-05-14T05:03:19;3.73;;;3.43;;
1090;SDS011;534;48.704;9.122;2023-05-14T05:05:46;3.60;;;3.30;;
1090;SDS011;534;48.704;9.122;2023-05-14T05:08:13;3.90;;;3.50;;
1090;SDS011;534;48.704;9.122;2023-05-14T05:10:41;4.20;;;3.80;;
1090;SDS011;534;48.704;9.122;2023-05-14T05:13:07;3.30;;;3.00;;
1090;SDS011;534;48.704;9.122;2023-05-14T05:15:34;3.70;;;3.40;;
1090;SDS011;534;48.704;9.122;2023-05-14T05:18:01;3.37;;;3.07;;
1090;SDS011;534;48.704;9.122;2023-05-14T05:20:27;3.73;;;3.43;;
1090;SDS011;534;48.704;9.122;2023-05-14T05:22:55;3.67;;;3.37;;
1090;SDS011;534;48.704;9.122;2023-05-14T05:25:21;3.30;;;3.00;;
1090;SDS011;534;48.704;9.122;2023-05-14T05:27:49;3.47;;;3.17;;
1090;SDS011;534;48.704;9.122;2023-05-14T05:30:16;3.93;;;3.50;;
1090;SDS011;534;48.704;9.122;2023-05-14T05:32:43;3.33;;;2.87;;
1090;SDS011;534;48.704;9.122;2023-05-14T05:35:10;3.20;;;2.90;;
1090;SDS011;534;48.704;9.122;2023-05-14T05:37:36;2.73;;;2.50;;
1090;SDS011;534;48.704;9.122;2023-05-14T05:40:03;3.10;;;2.87;;
1090;SDS011;534;48.704;9.122;2023-05-14T05:42:32;3.40;;;3.00;;
1090;SDS011;534;48.704;9.122;2023-05-14T05:45:00;3.00;;;2.70;;
1090;SDS011;534;48.704;9.122;2023-05-14T05:47:26;3.77;;;3.47;;
1090;SDS011;534;48.704;9.122;2023-05-14T05:49:54;4.37;;;3.67;;
1090;SDS011;534;48.704;9.122;2023-05-14T05:52:21;3.00;;;2.70;;
1090;SDS011;534;48.704;9.122;2023-05-14T05:54:47;3.43;;;3.13;;
1090;SDS011;534;48.704;9.122;2023-05-14T05:57:14;3.20;;;2.83;;
1090;SDS011;534;48.704;9.122;2023-05-14T05:59:41;3.27;;;2.97;;
1090;SDS011;534;48.704;9.122;2023-05-14T06:02:09;4.30;;;3.70;;
1090;SDS011;534;48.704;9.122;2023-05-14T06:04:35;3.20;;;2.90;;
1090;SDS011;534;48.704;9.122;2023-05-14T06:07:02;3.70;;;3.40;;
1090;SDS011;534;48.704;9.122;2023-05-14T06:09:29;3.67;;;3.37;;
1090;SDS011;534;48.704;9.122;2023-05-14T06:11:56;3.70;;;3.40;;
1090;SDS011;534;48.704;9.122;2023-05-14T06:14:22;3.83;;;3.53;;
1090;SDS011;534;48.704;9.122;2023-05-14T06:16:49;4.90;;;4.10;;
1090;SDS011;534;48.704;9.122;2023-05-14T06:19:18;3.80;;;3.50;;
1090;SDS011;534;48.704;9.122;2023-05-14T06:21:44;4.37;;;3.97;;
1090;SDS011;534;48.704;9.122;2023-05-14T06:24:11;3.93;;;3.57;;
1090;SDS011;534;48.704;9.122;2023-05-14T06:26:38;4.33;;;3.93;;
1090;SDS011;534;48.704;9.122;2023-05-14T06:29:04;11.67;;;4.70;;
1090;SDS011;534;48.704;9.122;2023-05-14T06:31:31;4.90;;;4.50;;
1090;SDS011;534;48.704;9.122;2023-05-14T06:33:58;4.37;;;3.97;;
1090;SDS011;534;48.704;9.122;2023-05-14T06:36:26;4.10;;;3.70;;
1090;SDS011;534;48.704;9.122;2023-05-14T06:38:52;4.57;;;4.17;;
1090;SDS011;534;48.704;9.122;2023-05-14T06:41:19;3.63;;;3.33;;
1090;SDS011;534;48.704;9.122;2023-05-14T06:43:46;4.27;;;3.87;;
1090;SDS011;534;48.704;9.122;2023-05-14T06:46:13;3.23;;;2.83;;
1090;SDS011;534;48.704;9.122;2023-05-14T06:48:40;4.33;;;3.93;;
1090;SDS011;534;48.704;9.122;2023-05-14T06:51:06;3.77;;;3.40;;
1090;SDS011;534;48.704;9.122;2023-05-14T06:53:36;3.50;;;3.20;;
1090;SDS011;534;48.704;9.122;2023-05-14T06:56:03;3.50;;;3.20;;
1090;SDS011;534;48.704;9.122;2023-05-14T06:58:30;4.30;;;3.90;;
1090;SDS011;534;48.704;9.122;2023-05-14T07:00:56;3.97;;;3.57;;
1090;SDS011;534;48.704;9.122;2023-05-14T07:03:23;4.00;;;3.70;;
1090;SDS011;534;48.704;9.122;2023-05-14T07:05:50;4.13;;;3.73;;
1090;SDS011;534;48.704;9.122;2023-05-14T07:08:16;4.30;;;3.90;;
1090;SDS011;534;48.704;9.122;2023-05-14T07:10:44;3.70;;;3.40;;
1090;SDS011;534;48.704;9.122;2023-05-14T07:13:11;4.27;;;3.87;;
1090;SDS011;534;48.704;9.122;2023-05-14T07:15:38;3.53;;;3.23;;
1090;SDS011;534;48.704;9.122;2023-05-14T07:18:04;3.67;;;3.37;;
1090;SDS011;534;48.704;9.122;2023-05-14T07:20:31;4.40;;;3.67;;
1090;SDS011;534;48.704;9.122;2023-05-14T07:22:57;4.30;;;3.90;;
1090;SDS011;534;48.704;9.122;2023-05-14T07:25:24;4.27;;;3.87;;
1090;SDS011;534;48.704;9.122;2023-05-14T07:27:52;3.60;;;3.30;;
1090;SDS011;534;48.704;9.122;2023-05-14T07:30:19;4.57;;;3.20;;
1090;SDS011;534;48.704;9.122;2023-05-14T07:32:46;3.53;;;3.23;;
1090;SDS011;534;48.704;9.122;2023-05-14T07:35:13;3.90;;;3.50;;
1090;SDS011;534;48.704;9.122;2023-05-14T07:37:39;3.37;;;3.07;;
1090;SDS011;534;48.704;9.122;2023-05-14T07:40:07;3.87;;;3.57;;
1090;SDS011;534;48.704;9.122;2023-05-14T07:42:34;3.87;;;3.57;;
1090;SDS011;534;48.704;9.122;2023-05-14T07:45:02;4.73;;;4.33;;
1090;SDS011;534;48.704;9.122;2023-05-14T07:47:29;3.93;;;3.57;;
1090;SDS011;534;48.704;9.122;2023-05-14T07:49:56;4.30;;;3.90;;
1090;SDS011;534;48.704;9.122;2023-05-14T07:52:23;4.30;;;3.60;;
1090;SDS011;534;48.704;9.122;2023-05-14T07:54:50;4.10;;;3.73;;
1090;SDS011;534;48.704;9.122;2023-05-14T07:57:17;4.03;;;3.73;;
1090;SDS011;534;48.704;9.122;2023-05-14T07:59:43;4.33;;;3.93;;
1090;SDS011;534;48.704;9.122;2023-05-14T08:02:12;4.40;;;4.00;;
1090;SDS011;534;48.704;9.122;2023-05-14T08:04:39;4.53;;;4.13;;
1090;SDS011;534;48.704;9.122;2023-05-14T08:07:06;3.73;;;3.43;;
1090;SDS011;534;48.704;9.122;2023-05-14T08:09:33;3.53;;;3.23;;
1090;SDS011;534;48.704;9.122;2023-05-14T08:12:00;3.67;;;3.37;;
1090;SDS011;534;48.704;9.122;2023-05-14T08:14:26;4.43;;;4.03;;
1090;SDS011;534;48.704;9.122;2023-05-14T08:16:53;3.87;;;3.30;;
1090;SDS011;534;48.704;9.122;2023-05-14T08:19:21;3.70;;;3.40;;
1090;SDS011;534;48.704;9.122;2023-05-14T08:21:48;4.00;;;3.60;;
1090;SDS011;534;48.704;9.122;2023-05-14T08:24:15;3.83;;;3.27;;
1090;SDS011;534;48.704;9.122;2023-05-14T08:26:42;3.90;;;3.60;;
1090;SDS011;534;48.704;9.122;2023-05-14T08:29:08;3.97;;;3.57;;
1090;SDS011;534;48.704;9.122;2023-05-14T08:31:35;3.40;;;3.10;;
1090;SDS011;534;48.704;9.122;2023-05-14T08:34:02;3.50;;;3.20;;
1090;SDS011;534;48.704;9.122;2023-05-14T08:36:30;3.80;;;3.50;;
1090;SDS011;534;48.704;9.122;2023-05-14T08:38:56;4.40;;;4.00;;
1090;SDS011;534;48.704;9.122;2023-05-14T08:41:23;3.50;;;3.20;;
1090;SDS011;534;48.704;9.122;2023-05-14T08:43:53;3.30;;;3.00;;
1090;SDS011;534;48.704;9.122;2023-05-14T08:46:24;3.70;;;3.40;;
1090;SDS011;534;48.704;9.122;2023-05-14T08:48:55;3.20;;;2.90;;
1090;SDS011;534;48.704;9.122;2023-05-14T08:51:27;4.00;;;3.20;;
1090;SDS011;534;48.704;9.122;2023-05-14T08:53:57;4.40;;;3.87;;
1090;SDS011;534;48.704;9.122;2023-05-14T08:56:27;4.20;;;3.80;;
1090;SDS011;534;48.704;9.122;2023-05-14T08:58:57;3.67;;;3.37;;
1090;SDS011;534;48.704;9.122;2023-05-14T09:01:24;4.27;;;3.87;;
1090;SDS011;534;48.704;9.122;2023-05-14T09:03:51;3.87;;;3.33;;
1090;SDS011;534;48.704;9.122;2023-05-14T09:06:19;4.10;;;3.70;;
1090;SDS011;534;48.704;9.122;2023-05-14T09:08:48;4.17;;;3.00;;
1090;SDS011;534;48.704;9.122;2023-05-14T09:11:15;3.73;;;3.37;;
1090;SDS011;534;48.704;9.122;2023-05-14T09:13:42;4.27;;;3.90;;
1090;SDS011;534;48.704;9.122;2023-05-14T09:16:08;3.20;;;2.90;;
1090;SDS011;534;48.704;9.122;2023-05-14T09:18:35;4.37;;;4.07;;
1090;SDS011;534;48.704;9.122;2023-05-14T09:21:02;3.63;;;3.33;;
1090;SDS011;534;48.704;9.122;2023-05-14T09:23:30;3.60;;;3.30;;
1090;SDS011;534;48.704;9.122;2023-05-14T09:25:59;4.40;;;3.73;;
1090;SDS011;534;48.704;9.122;2023-05-14T09:28:29;3.70;;;3.40;;
1090;SDS011;534;48.704;9.122;2023-05-14T09:30:56;4.33;;;3.93;;
1090;SDS011;534;48.704;9.122;2023-05-14T09:33:25;3.30;;;3.00;;
1090;SDS011;534;48.704;9.122;2023-05-14T09:35:54;3.37;;;3.07;;
1090;SDS011;534;48.704;9.122;2023-05-14T09:38:26;3.53;;;3.23;;
1090;SDS011;534;48.704;9.122;2023-05-14T09:40:54;3.67;;;3.30;;
1090;SDS011;534;48.704;9.122;2023-05-14T09:43:22;3.80;;;3.50;;
1090;SDS011;534;48.704;9.122;2023-05-14T09:45:49;4.57;;;4.17;;
1090;SDS011;534;48.704;9.122;2023-05-14T09:48:15;4.00;;;3.23;;
1090;SDS011;534;48.704;9.122;2023-05-14T09:50:42;4.57;;;4.17;;
1090;SDS011;534;48.704;9.122;2023-05-14T09:53:10;3.20;;;2.70;;
1090;SDS011;534;48.704;9.122;2023-05-14T09:55:37;3.87;;;3.57;;
1090;SDS011;534;48.704;9.122;2023-05-14T09:58:04;3.73;;;3.43;;
1090;SDS011;534;48.704;9.122;2023-05-14T10:00:32;3.70;;;3.40;;
1090;SDS011;534;48.704;9.122;2023-05-14T10:03:00;3.37;;;3.07;;
1090;SDS011;534;48.704;9.122;2023-05-14T10:05:30;3.50;;;3.20;;
1090;SDS011;534;48.704;9.122;2023-05-14T10:08:00;3.50;;;3.20;;
1090;SDS011;534;48.704;9.122;2023-05-14T10:10:30;3.60;;;3.30;;
1090;SDS011;534;48.704;9.122;2023-05-14T10:13:01;4.60;;;3.00;;
1090;SDS011;534;48.704;9.122;2023-05-14T10:15:36;3.80;;;3.47;;
1090;SDS011;534;48.704;9.122;2023-05-14T10:18:08;3.43;;;3.13;;
1090;SDS011;534;48.704;9.122;2023-05-14T10:20:37;4.30;;;3.40;;
1090;SDS011;534;48.704;9.122;2023-05-14T10:23:06;3.90;;;3.50;;
1090;SDS011;534;48.704;9.122;2023-05-14T10:25:32;4.07;;;3.77;;
1090;SDS011;534;48.704;9.122;2023-05-14T10:27:59;4.20;;;3.80;;
1090;SDS011;534;48.704;9.122;2023-05-14T10:30:28;4.03;;;3.73;;
1090;SDS011;534;48.704;9.122;2023-05-14T10:33:08;3.20;;;2.90;;
1090;SDS011;534;48.704;9.122;2023-05-14T10:35:51;4.40;;;3.40;;
1090;SDS011;534;48.704;9.122;2023-05-14T10:38:26;2.80;;;2.50;;
1090;SDS011;534;48.704;9.122;2023-05-14T10:40:54;3.20;;;2.50;;
1090;SDS011;534;48.704;9.122;2023-05-14T10:43:23;4.27;;;2.90;;
1090;SDS011;534;48.704;9.122;2023-05-14T10:45:51;3.97;;;3.67;;
1090;SDS011;534;48.704;9.122;2023-05-14T10:48:19;2.90;;;2.67;;
1090;SDS011;534;48.704;9.122;2023-05-14T10:50:46;3.33;;;3.03;;
1090;SDS011;534;48.704;9.122;2023-05-14T10:53:13;3.33;;;3.03;;
1090;SDS011;534;48.704;9.122;2023-05-14T10:55:41;3.70;;;3.40;;
1090;SDS011;534;48.704;9.122;2023-05-14T10:58:08;3.03;;;2.67;;
1090;SDS011;534;48.704;9.122;2023-05-14T11:00:36;3.13;;;2.83;;
1090;SDS011;534;48.704;9.122;2023-05-14T11:03:04;2.97;;;2.53;;
1090;SDS011;534;48.704;9.122;2023-05-14T11:05:33;3.97;;;3.00;;
1090;SDS011;534;48.704;9.122;2023-05-14T11:08:02;3.23;;;2.37;;
1090;SDS011;534;48.704;9.122;2023-05-14T11:10:33;2.40;;;2.20;;
1090;SDS011;534;48.704;9.122;2023-05-14T11:13:00;2.80;;;2.23;;
1090;SDS011;534;48.704;9.122;2023-05-14T11:15:27;2.20;;;2.00;;
1090;SDS011;534;48.704;9.122;2023-05-14T11:17:54;3.17;;;2.87;;
1090;SDS011;534;48.704;9.122;2023-05-14T11:20:20;2.80;;;2.50;;
1090;SDS011;534;48.704;9.122;2023-05-14T11:22:48;2.97;;;2.27;;
1090;SDS011;534;48.704;9.122;2023-05-14T11:25:16;2.63;;;2.10;;
1090;SDS011;534;48.704;9.122;2023-05-14T11:27:44;2.90;;;2.60;;
1090;SDS011;534;48.704;9.122;2023-05-14T11:30:12;2.97;;;2.57;;
1090;SDS011;534;48.704;9.122;2023-05-14T11:32:40;3.67;;;2.43;;
1090;SDS011;534;48.704;9.122;2023-05-14T11:35:07;3.30;;;2.67;;
1090;SDS011;534;48.704;9.122;2023-05-14T11:37:34;3.10;;;2.60;;
1090;SDS011;534;48.704;9.122;2023-05-14T11:40:06;3.03;;;2.73;;
1090;SDS011;534;48.704;9.122;2023-05-14T11:42:35;3.17;;;2.50;;
1090;SDS011;534;48.704;9.122;2023-05-14T11:45:02;2.77;;;2.47;;
1090;SDS011;534;48.704;9.122;2023-05-14T11:47:29;3.10;;;2.80;;
1090;SDS011;534;48.704;9.122;2023-05-14T11:49:56;3.17;;;2.87;;
1090;SDS011;534;48.704;9.122;2023-05-14T11:52:24;3.43;;;3.13;;
1090;SDS011;534;48.704;9.122;2023-05-14T11:54:51;3.50;;;3.20;;
1090;SDS011;534;48.704;9.122;2023-05-14T11:57:19;3.73;;;3.43;;
1090;SDS011;534;48.704;9.122;2023-05-14T11:59:47;3.37;;;3.07;;
1090;SDS011;534;48.704;9.122;2023-05-14T12:02:19;3.87;;;2.57;;
1090;SDS011;534;48.704;9.122;2023-05-14T12:04:48;2.47;;;2.27;;
1090;SDS011;534;48.704;9.122;2023-05-14T12:07:16;2.57;;;2.37;;
1090;SDS011;534;48.704;9.122;2023-05-14T12:09:43;2.60;;;2.40;;
1090;SDS011;534;48.704;9.122;2023-05-14T12:12:13;2.77;;;2.23;;
1090;SDS011;534;48.704;9.122;2023-05-14T12:14:42;3.40;;;2.70;;
1090;SDS011;534;48.704;9.122;2023-05-14T12:17:13;2.30;;;1.97;;
1090;SDS011;534;48.704;9.122;2023-05-14T12:19:41;2.70;;;2.40;;
1090;SDS011;534;48.704;9.122;2023-05-14T12:22:09;2.80;;;2.50;;
1090;SDS011;534;48.704;9.122;2023-05-14T12:24:36;2.30;;;2.00;;
1090;SDS011;534;48.704;9.122;2023-05-14T12:27:03;2.70;;;2.40;;
1090;SDS011;534;48.704;9.122;2023-05-14T12:29:33;3.20;;;2.90;;
1090;SDS011;534;48.704;9.122;2023-05-14T12:32:05;3.27;;;2.10;;
1090;SDS011;534;48.704;9.122;2023-05-14T12:34:33;3.10;;;2.67;;
1090;SDS011;534;48.704;9.122;2023-05-14T12:37:00;2.80;;;2.60;;
1090;SDS011;534;48.704;9.122;2023-05-14T12:39:28;3.47;;;3.17;;
1090;SDS011;534;48.704;9.122;2023-05-14T12:41:57;3.37;;;2.83;;
1090;SDS011;534;48.704;9.122;2023-05-14T12:44:24;3.37;;;2.67;;
1090;SDS011;534;48.704;9.122;2023-05-14T12:46:50;2.90;;;2.60;;
1090;SDS011;534;48.704;9.122;2023-05-14T12:49:19;2.60;;;2.40;;
1090;SDS011;534;48.704;9.122;2023-05-14T12:51:45;2.50;;;2.30;;
1090;SDS011;534;48.704;9.122;2023-05-14T12:54:12;2.40;;;1.97;;
1090;SDS011;534;48.704;9.122;2023-05-14T12:56:39;2.67;;;2.20;;
1090;SDS011;534;48.704;9.122;2023-05-14T12:59:06;2.57;;;2.20;;
1090;SDS011;534;48.704;9.122;2023-05-14T13:01:33;2.53;;;2.17;;
1090;SDS011;534;48.704;9.122;2023-05-14T13:04:01;2.60;;;2.30;;
1090;SDS011;534;48.704;9.122;2023-05-14T13:06:29;3.20;;;2.80;;
1090;SDS011;534;48.704;9.122;2023-05-14T13:08:56;2.50;;;2.20;;
1090;SDS011;534;48.704;9.122;2023-05-14T13:11:25;2.40;;;1.90;;
1090;SDS011;534;48.704;9.122;2023-05-14T13:13:55;2.20;;;1.80;;
1090;SDS011;534;48.704;9.122;2023-05-14T13:16:22;2.50;;;2.10;;
1090;SDS011;534;48.704;9.122;2023-05-14T13:18:49;2.90;;;2.40;;
1090;SDS011;534;48.704;9.122;2023-05-14T13:21:16;2.73;;;2.10;;
1090;SDS011;534;48.704;9.122;2023-05-14T13:23:44;2.20;;;1.90;;
1090;SDS011;534;48.704;9.122;2023-05-14T13:26:10;4.67;;;2.30;;
1090;SDS011;534;48.704;9.122;2023-05-14T13:28:38;2.43;;;2.10;;
1090;SDS011;534;48.704;9.122;2023-05-14T13:31:05;2.23;;;1.97;;
1090;SDS011;534;48.704;9.122;2023-05-14T13:33:34;2.00;;;1.77;;
1090;SDS011;534;48.704;9.122;2023-05-14T13:36:01;2.30;;;1.90;;
1090;SDS011;534;48.704;9.122;2023-05-14T13:38:28;2.00;;;1.53;;
1090;SDS011;534;48.704;9.122;2023-05-14T13:40:56;2.37;;;1.90;;
1090;SDS011;534;48.704;9.122;2023-05-14T13:43:26;2.50;;;1.90;;
1090;SDS011;534;48.704;9.122;2023-05-14T13:45:53;2.10;;;1.70;;
1090;SDS011;534;48.704;9.122;2023-05-14T13:48:21;2.10;;;1.60;;
1090;SDS011;534;48.704;9.122;2023-05-14T13:50:47;2.20;;;1.63;;
1090;SDS011;534;48.704;9.122;2023-05-14T13:53:15;2.20;;;1.80;;
1090;SDS011;534;48.704;9.122;2023-05-14T13:55:42;2.13;;;1.73;;
1090;SDS011;534;48.704;9.122;2023-05-14T13:58:10;2.10;;;1.60;;
1090;SDS011;534;48.704;9.122;2023-05-14T14:00:37;3.57;;;1.83;;
1090;SDS011;534;48.704;9.122;2023-05-14T14:03:04;3.10;;;1.83;;
1090;SDS011;534;48.704;9.122;2023-05-14T14:05:31;2.20;;;1.93;;
1090;SDS011;534;48.704;9.122;2023-05-14T14:07:58;2.10;;;1.43;;
1090;SDS011;534;48.704;9.122;2023-05-14T14:10:25;2.27;;;1.90;;
1090;SDS011;534;48.704;9.122;2023-05-14T14:12:51;2.37;;;1.87;;
1090;SDS011;534;48.704;9.122;2023-05-14T14:15:20;2.20;;;2.00;;
1090;SDS011;534;48.704;9.122;2023-05-14T14:17:46;2.30;;;1.90;;
1090;SDS011;534;48.704;9.122;2023-05-14T14:20:13;2.30;;;2.10;;
1090;SDS011;534;48.704;9.122;2023-05-14T14:22:41;2.60;;;1.80;;
1090;SDS011;534;48.704;9.122;2023-05-14T14:25:09;2.60;;;1.90;;
1090;SDS011;534;48.704;9.122;2023-05-14T14:27:36;2.50;;;2.10;;
1090;SDS011;534;48.704;9.122;2023-05-14T14:30:04;2.27;;;1.90;;
1090;SDS011;534;48.704;9.122;2023-05-14T14:32:34;2.33;;;1.87;;
1090;SDS011;534;48.704;9.122;2023-05-14T14:35:01;2.70;;;2.20;;
1090;SDS011;534;48.704;9.122;2023-05-14T14:37:27;2.20;;;1.80;;
1090;SDS011;534;48.704;9.122;2023-05-14T14:39:54;2.20;;;1.77;;
1090;SDS011;534;48.704;9.122;2023-05-14T14:42:21;2.13;;;1.57;;
1090;SDS011;534;48.704;9.122;2023-05-14T14:44:48;2.30;;;1.80;;
1090;SDS011;534;48.704;9.122;2023-05-14T14:47:14;2.37;;;1.70;;
1090;SDS011;534;48.704;9.122;2023-05-14T14:49:42;1.87;;;1.40;;
1090;SDS011;534;48.704;9.122;2023-05-14T14:52:09;2.00;;;1.47;;
1090;SDS011;534;48.704;9.122;2023-05-14T14:54:36;2.13;;;1.60;;
1090;SDS011;534;48.704;9.122;2023-05-14T14:57:02;2.10;;;1.40;;
1090;SDS011;534;48.704;9.122;2023-05-14T14:59:29;2.00;;;1.57;;
1090;SDS011;534;48.704;9.122;2023-05-14T15:01:56;2.27;;;1.53;;
1090;SDS011;534;48.704;9.122;2023-05-14T15:04:23;2.10;;;1.70;;
1090;SDS011;534;48.704;9.122;2023-05-14T15:06:51;2.27;;;1.50;;
1090;SDS011;534;48.704;9.122;2023-05-14T15:09:17;2.20;;;1.60;;
1090;SDS011;534;48.704;9.122;2023-05-14T15:11:44;2.20;;;1.77;;
1090;SDS011;534;48.704;9.122;2023-05-14T15:14:11;2.30;;;1.60;;
1090;SDS011;534;48.704;9.122;2023-05-14T15:16:38;2.40;;;1.80;;
1090;SDS011;534;48.704;9.122;2023-05-14T15:19:04;2.00;;;1.30;;
1090;SDS011;534;48.704;9.122;2023-05-14T15:21:31;2.20;;;1.90;;
1090;SDS011;534;48.704;9.122;2023-05-14T15:24:01;2.03;;;1.50;;
1090;SDS011;534;48.704;9.122;2023-05-14T15:26:28;2.03;;;1.27;;
1090;SDS011;534;48.704;9.122;2023-05-14T15:28:55;1.90;;;1.30;;
1090;SDS011;534;48.704;9.122;2023-05-14T15:31:22;2.07;;;1.57;;
1090;SDS011;534;48.704;9.122;2023-05-14T15:33:49;2.10;;;1.60;;
1090;SDS011;534;48.704;9.122;2023-05-14T15:36:16;2.00;;;1.50;;
1090;SDS011;534;48.704;9.122;2023-05-14T15:38:42;2.00;;;1.50;;
1090;SDS011;534;48.704;9.122;2023-05-14T15:41:10;1.90;;;1.23;;
1090;SDS011;534;48.704;9.122;2023-05-14T15:43:37;2.00;;;1.53;;
1090;SDS011;534;48.704;9.122;2023-05-14T15:46:04;2.03;;;1.30;;
1090;SDS011;534;48.704;9.122;2023-05-14T15:48:30;2.10;;;1.57;;
1090;SDS011;534;48.704;9.122;2023-05-14T15:50:57;2.73;;;1.67;;
1090;SDS011;534;48.704;9.122;2023-05-14T15:53:24;1.80;;;1.10;;
1090;SDS011;534;48.704;9.122;2023-05-14T15:55:51;2.03;;;1.50;;
1090;SDS011;534;48.704;9.122;2023-05-14T15:58:19;3.20;;;1.30;;
1090;SDS011;534;48.704;9.122;2023-05-14T16:00:45;1.90;;;1.30;;
1090;SDS011;534;48.704;9.122;2023-05-14T16:03:12;2.30;;;1.90;;
1090;SDS011;534;48.704;9.122;2023-05-14T16:05:39;2.20;;;1.70;;
1090;SDS011;534;48.704;9.122;2023-05-14T16:08:06;2.13;;;1.70;;
1090;SDS011;534;48.704;9.122;2023-05-14T16:10:33;2.30;;;1.80;;
1090;SDS011;534;48.704;9.122;2023-05-14T16:13:00;2.10;;;1.70;;
1090;SDS011;534;48.704;9.122;2023-05-14T16:15:28;2.40;;;1.63;;
1090;SDS011;534;48.704;9.122;2023-05-14T16:17:54;2.07;;;1.57;;
1090;SDS011;534;48.704;9.122;2023-05-14T16:20:21;2.50;;;1.63;;
1090;SDS011;534;48.704;9.122;2023-05-14T16:22:48;2.00;;;1.60;;
1090;SDS011;534;48.704;9.122;2023-05-14T16:25:14;1.97;;;1.40;;
1090;SDS011;534;48.704;9.122;2023-05-14T16:27:42;2.00;;;1.33;;
1090;SDS011;534;48.704;9.122;2023-05-14T16:30:09;2.20;;;1.37;;
1090;SDS011;534;48.704;9.122;2023-05-14T16:32:37;2.57;;;1.87;;
1090;SDS011;534;48.704;9.122;2023-05-14T16:35:06;3.23;;;1.70;;
1090;SDS011;534;48.704;9.122;2023-05-14T16:37:33;2.20;;;1.60;;
1090;SDS011;534;48.704;9.122;2023-05-14T16:39:59;2.00;;;1.70;;
1090;SDS011;534;48.704;9.122;2023-05-14T16:42:26;2.30;;;1.50;;
1090;SDS011;534;48.704;9.122;2023-05-14T16:44:53;2.10;;;1.67;;
1090;SDS011;534;48.704;9.122;2023-05-14T16:47:19;2.30;;;1.80;;
1090;SDS011;534;48.704;9.122;2023-05-14T16:49:47;1.90;;;1.40;;
1090;SDS011;534;48.704;9.122;2023-05-14T16:52:14;2.33;;;1.80;;
1090;SDS011;534;48.704;9.122;2023-05-14T16:54:41;2.20;;;1.93;;
1090;SDS011;534;48.704;9.122;2023-05-14T16:57:07;2.23;;;1.70;;
1090;SDS011;534;48.704;9.122;2023-05-14T16:59:34;1.93;;;1.50;;
1090;SDS011;534;48.704;9.122;2023-05-14T17:02:01;2.40;;;2.00;;
1090;SDS011;534;48.704;9.122;2023-05-14T17:04:27;2.30;;;1.90;;
1090;SDS011;534;48.704;9.122;2023-05-14T17:06:55;2.37;;;1.77;;
1090;SDS011;534;48.704;9.122;2023-05-14T17:09:22;2.10;;;1.80;;
1090;SDS011;534;48.704;9.122;2023-05-14T17:11:49;2.03;;;1.67;;
1090;SDS011;534;48.704;9.122;2023-05-14T17:14:15;2.50;;;1.50;;
1090;SDS011;534;48.704;9.122;2023-05-14T17:16:42;2.27;;;1.87;;
1090;SDS011;534;48.704;9.122;2023-05-14T17:19:09;1.83;;;1.40;;
1090;SDS011;534;48.704;9.122;2023-05-14T17:21:35;2.10;;;1.47;;
1090;SDS011;534;48.704;9.122;2023-05-14T17:24:03;2.33;;;1.50;;
1090;SDS011;534;48.704;9.122;2023-05-14T17:26:30;3.20;;;1.73;;
1090;SDS011;534;48.704;9.122;2023-05-14T17:28:57;2.50;;;1.83;;
1090;SDS011;534;48.704;9.122;2023-05-14T17:31:24;2.10;;;1.67;;
1090;SDS011;534;48.704;9.122;2023-05-14T17:33:50;2.50;;;2.20;;
1090;SDS011;534;48.704;9.122;2023-05-14T17:36:17;2.10;;;1.70;;
1090;SDS011;534;48.704;9.122;2023-05-14T17:38:44;2.73;;;1.40;;
1090;SDS011;534;48.704;9.122;2023-05-14T17:41:12;2.10;;;1.63;;
1090;SDS011;534;48.704;9.122;2023-05-14T17:43:39;1.97;;;1.50;;
1090;SDS011;534;48.704;9.122;2023-05-14T17:46:05;2.10;;;1.63;;
1090;SDS011;534;48.704;9.122;2023-05-14T17:48:32;2.63;;;1.50;;
1090;SDS011;534;48.704;9.122;2023-05-14T17:50:59;2.80;;;1.90;;
1090;SDS011;534;48.704;9.122;2023-05-14T17:53:25;2.40;;;2.13;;
1090;SDS011;534;48.704;9.122;2023-05-14T17:55:52;3.03;;;2.37;;
1090;SDS011;534;48.704;9.122;2023-05-14T17:58:20;2.83;;;2.53;;
1090;SDS011;534;48.704;9.122;2023-05-14T18:00:47;2.30;;;2.07;;
1090;SDS011;534;48.704;9.122;2023-05-14T18:03:13;2.47;;;2.27;;
1090;SDS011;534;48.704;9.122;2023-05-14T18:05:41;2.23;;;1.83;;
1090;SDS011;534;48.704;9.122;2023-05-14T18:08:07;2.20;;;1.73;;
1090;SDS011;534;48.704;9.122;2023-05-14T18:10:34;2.00;;;1.50;;
1090;SDS011;534;48.704;9.122;2023-05-14T18:13:01;1.90;;;1.40;;
1090;SDS011;534;48.704;9.122;2023-05-14T18:15:29;2.20;;;1.67;;
1090;SDS011;534;48.704;9.122;2023-05-14T18:17:56;2.13;;;1.50;;
1090;SDS011;534;48.704;9.122;2023-05-14T18:20:23;2.50;;;1.83;;
1090;SDS011;534;48.704;9.122;2023-05-14T18:22:49;2.23;;;1.70;;
1090;SDS011;534;48.704;9.122;2023-05-14T18:25:16;2.03;;;1.57;;
1090;SDS011;534;48.704;9.122;2023-05-14T18:27:43;2.60;;;1.60;;
1090;SDS011;534;48.704;9.122;2023-05-14T18:30:10;2.27;;;1.70;;
1090;SDS011;534;48.704;9.122;2023-05-14T18:32:39;2.30;;;1.67;;
1090;SDS011;534;48.704;9.122;2023-05-14T18:35:07;2.27;;;1.83;;
1090;SDS011;534;48.704;9.122;2023-05-14T18:37:35;1.97;;;1.37;;
1090;SDS011;534;48.704;9.122;2023-05-14T18:40:01;2.27;;;1.70;;
1090;SDS011;534;48.704;9.122;2023-05-14T18:42:30;2.47;;;1.67;;
1090;SDS011;534;48.704;9.122;2023-05-14T18:44:57;2.57;;;1.80;;
1090;SDS011;534;48.704;9.122;2023-05-14T18:47:24;3.13;;;1.90;;
1090;SDS011;534;48.704;9.122;2023-05-14T18:49:52;2.10;;;1.57;;
1090;SDS011;534;48.704;9.122;2023-05-14T18:52:21;2.00;;;1.40;;
1090;SDS011;534;48.704;9.122;2023-05-14T18:54:49;2.07;;;1.60;;
1090;SDS011;534;48.704;9.122;2023-05-14T18:57:15;2.30;;;1.80;;
1090;SDS011;534;48.704;9.122;2023-05-14T18:59:42;2.53;;;1.90;;
1090;SDS011;534;48.704;9.122;2023-05-14T19:02:09;2.27;;;1.60;;
1090;SDS011;534;48.704;9.122;2023-05-14T19:04:35;2.77;;;1.67;;
1090;SDS011;534;48.704;9.122;2023-05-14T19:07:04;2.33;;;1.87;;
1090;SDS011;534;48.704;9.122;2023-05-14T19:09:31;2.13;;;1.73;;
1090;SDS011;534;48.704;9.122;2023-05-14T19:11:58;2.27;;;1.80;;
1090;SDS011;534;48.704;9.122;2023-05-14T19:14:24;2.27;;;1.73;;
1090;SDS011;534;48.704;9.122;2023-05-14T19:16:51;2.10;;;1.60;;
1090;SDS011;534;48.704;9.122;2023-05-14T19:19:18;2.40;;;1.87;;
1090;SDS011;534;48.704;9.122;2023-05-14T19:21:44;2.43;;;2.03;;
1090;SDS011;534;48.704;9.122;2023-05-14T19:24:12;2.50;;;2.23;;
1090;SDS011;534;48.704;9.122;2023-05-14T19:26:39;2.73;;;2.20;;
1090;SDS011;534;48.704;9.122;2023-05-14T19:29:06;2.47;;;1.80;;
1090;SDS011;534;48.704;9.122;2023-05-14T19:31:33;2.93;;;2.20;;